createdAt,value
2018-10-16T00:01:00.178Z,86.04
2018-10-16T00:03:28.937Z,86.23
2018-10-16T00:05:57.532Z,86.76
2018-10-16T00:08:26.045Z,86.45
2018-10-16T00:10:54.566Z,86.28
2018-10-16T00:13:23.966Z,86.63
2018-10-16T00:15:53.047Z,85.64
2018-10-16T00:18:21.552Z,85.57
2018-10-16T00:20:50.057Z,86.45
2018-10-16T00:23:18.821Z,85.56
2018-10-16T00:25:47.341Z,86.02
2018-10-16T00:28:15.824Z,85.42
2018-10-16T00:30:44.386Z,85.55
2018-10-16T00:33:13.011Z,85.99
2018-10-16T00:35:41.565Z,85.84
2018-10-16T00:38:10.078Z,85.94
2018-10-16T00:40:38.574Z,85.70
2018-10-16T00:43:07.123Z,85.16
2018-10-16T00:45:35.639Z,85.50
2018-10-16T00:48:05.216Z,86.37
2018-10-16T00:50:33.731Z,85.94
2018-10-16T00:53:04.036Z,86.48
2018-10-16T00:55:32.924Z,85.71
2018-10-16T00:58:02.828Z,86.48
2018-10-16T01:00:31.462Z,86.72
2018-10-16T01:03:00.059Z,86.70
2018-10-16T01:05:28.627Z,87.28
2018-10-16T01:07:57.135Z,86.63
2018-10-16T01:10:25.688Z,86.43
2018-10-16T01:12:54.542Z,86.53
2018-10-16T01:15:23.058Z,87.01
2018-10-16T01:17:52.061Z,86.76
2018-10-16T01:20:20.665Z,86.51
2018-10-16T01:22:49.214Z,86.67
2018-10-16T01:25:17.718Z,86.91
2018-10-16T01:27:46.267Z,87.88
2018-10-16T01:30:14.813Z,87.37
2018-10-16T01:32:43.405Z,87.76
2018-10-16T01:35:12.579Z,86.90
2018-10-16T01:37:41.585Z,88.08
2018-10-16T01:40:11.235Z,87.96
2018-10-16T01:42:39.832Z,88.09
2018-10-16T01:45:08.957Z,88.52
2018-10-16T01:47:37.485Z,87.39
2018-10-16T01:50:09.914Z,87.25
2018-10-16T01:52:38.623Z,88.19
2018-10-16T01:55:07.265Z,88.68
2018-10-16T01:57:35.809Z,88.04
2018-10-16T02:00:05.757Z,88.27
2018-10-16T02:02:34.388Z,88.51
2018-10-16T02:05:05.575Z,88.84
2018-10-16T02:07:34.099Z,88.23
2018-10-16T02:10:03.404Z,88.28
2018-10-16T02:12:31.911Z,88.00
2018-10-16T02:15:00.426Z,88.89
2018-10-16T02:17:28.949Z,88.98
2018-10-16T02:19:57.442Z,88.34
2018-10-16T02:22:25.965Z,89.08
2018-10-16T02:24:54.482Z,88.98
2018-10-16T02:27:23.047Z,88.22
2018-10-16T02:29:51.537Z,89.24
2018-10-16T02:32:20.061Z,89.24
2018-10-16T02:34:48.588Z,88.74
2018-10-16T02:37:17.182Z,89.21
2018-10-16T02:39:45.742Z,88.53
2018-10-16T02:42:14.361Z,89.16
2018-10-16T02:44:42.844Z,88.93
2018-10-16T02:47:11.398Z,89.17
2018-10-16T02:49:40.003Z,89.17
2018-10-16T02:52:08.525Z,89.06
2018-10-16T02:54:37.164Z,88.89
2018-10-16T02:57:06.113Z,88.10
2018-10-16T02:59:34.604Z,88.50
2018-10-16T03:02:04.712Z,89.07
2018-10-16T03:04:33.235Z,88.90
2018-10-16T03:07:05.432Z,89.59
2018-10-16T03:09:33.946Z,89.87
2018-10-16T03:12:03.259Z,89.91
2018-10-16T03:14:31.781Z,90.17
2018-10-16T03:17:00.403Z,90.59
2018-10-16T03:19:28.957Z,91.20
2018-10-16T03:21:57.491Z,91.19
2018-10-16T03:24:26.012Z,91.39
2018-10-16T03:26:55.100Z,90.89
2018-10-16T03:29:23.736Z,91.15
2018-10-16T03:31:52.278Z,91.12
2018-10-16T03:34:20.955Z,91.91
2018-10-16T03:36:49.449Z,91.30
2018-10-16T03:39:18.393Z,91.31
2018-10-16T03:41:46.910Z,91.44
2018-10-16T03:44:15.452Z,91.81
2018-10-16T03:46:43.973Z,92.20
2018-10-16T03:49:12.530Z,92.48
2018-10-16T03:51:41.668Z,92.50
2018-10-16T03:54:10.763Z,92.36
2018-10-16T03:56:39.247Z,92.63
2018-10-16T03:59:07.774Z,92.68
2018-10-16T04:01:36.595Z,93.01
2018-10-16T04:04:05.499Z,92.96
2018-10-16T04:06:34.016Z,92.50
2018-10-16T04:09:05.301Z,92.71
2018-10-16T04:11:33.839Z,92.72
2018-10-16T04:14:03.838Z,92.56
2018-10-16T04:16:32.350Z,93.12
2018-10-16T04:19:00.892Z,93.36
2018-10-16T04:21:34.533Z,92.93
2018-10-16T04:24:04.553Z,93.10
2018-10-16T04:26:33.189Z,93.11
2018-10-16T04:29:03.262Z,93.31
2018-10-16T04:31:31.799Z,93.30
2018-10-16T04:34:00.297Z,94.26
2018-10-16T04:36:28.983Z,93.48
2018-10-16T04:38:57.501Z,93.66
2018-10-16T04:41:26.275Z,94.21
2018-10-16T04:43:55.818Z,93.61
2018-10-16T04:46:24.404Z,94.25
2018-10-16T04:48:52.998Z,93.52
2018-10-16T04:51:21.665Z,93.59
2018-10-16T04:53:50.149Z,93.57
2018-10-16T04:56:18.656Z,93.33
2018-10-16T04:58:47.723Z,94.19
2018-10-16T05:01:16.233Z,94.12
2018-10-16T05:03:44.731Z,94.32
2018-10-16T05:06:13.270Z,94.28
2018-10-16T05:08:43.056Z,94.21
2018-10-16T05:11:11.643Z,95.17
2018-10-16T05:13:40.428Z,95.02
2018-10-16T05:16:08.997Z,94.39
2018-10-16T05:18:37.526Z,95.10
2018-10-16T05:21:06.618Z,94.62
2018-10-16T05:23:35.138Z,94.57
2018-10-16T05:26:06.055Z,94.54
2018-10-16T05:28:34.632Z,95.38
2018-10-16T05:31:04.673Z,94.39
2018-10-16T05:33:33.145Z,94.33
2018-10-16T05:36:02.813Z,94.77
2018-10-16T05:38:31.377Z,94.58
2018-10-16T05:40:59.905Z,94.79
2018-10-16T05:43:28.432Z,95.49
2018-10-16T05:45:57.465Z,94.91
2018-10-16T05:48:26.064Z,94.92
2018-10-16T05:50:54.555Z,95.10
2018-10-16T05:53:23.106Z,95.10
2018-10-16T05:56:02.748Z,94.97
2018-10-16T05:58:31.397Z,94.60
2018-10-16T06:00:59.955Z,94.09
2018-10-16T06:03:28.788Z,94.33
2018-10-16T06:05:57.313Z,94.11
2018-10-16T06:08:25.838Z,93.63
2018-10-16T06:10:54.443Z,93.84
2018-10-16T06:13:22.915Z,94.33
2018-10-16T06:15:51.525Z,93.78
2018-10-16T06:18:20.017Z,92.37
2018-10-16T06:20:48.535Z,92.35
2018-10-16T06:23:17.074Z,92.78
2018-10-16T06:25:46.209Z,92.82
2018-10-16T06:28:22.232Z,92.34
2018-10-16T06:30:50.777Z,93.37
2018-10-16T06:33:22.093Z,93.06
2018-10-16T06:35:50.601Z,93.39
2018-10-16T06:38:19.122Z,92.98
2018-10-16T06:40:47.715Z,93.22
2018-10-16T06:43:16.252Z,92.91
2018-10-16T06:45:44.977Z,92.75
2018-10-16T06:48:13.883Z,92.28
2018-10-16T06:50:42.629Z,91.12
2018-10-16T06:53:11.305Z,90.91
2018-10-16T06:55:39.787Z,90.91
2018-10-16T06:58:08.786Z,90.16
2018-10-16T07:00:37.876Z,90.98
2018-10-16T07:03:06.735Z,90.51
2018-10-16T07:05:36.147Z,88.99
2018-10-16T07:08:05.255Z,89.23
2018-10-16T07:10:33.802Z,89.48
2018-10-16T07:13:03.688Z,88.69
2018-10-16T07:15:32.573Z,88.67
2018-10-16T07:18:03.082Z,87.83
2018-10-16T07:20:31.569Z,86.96
2018-10-16T07:23:00.069Z,85.87
2018-10-16T07:25:28.613Z,84.66
2018-10-16T07:27:57.212Z,84.61
2018-10-16T07:30:25.800Z,83.37
2018-10-16T07:32:54.322Z,81.88
2018-10-16T07:35:22.865Z,82.73
2018-10-16T07:37:51.499Z,81.48
2018-10-16T07:40:19.970Z,81.73
2018-10-16T07:42:48.456Z,80.18
2018-10-16T07:45:16.963Z,79.53
2018-10-16T07:47:45.497Z,79.21
2018-10-16T07:50:14.030Z,78.84
2018-10-16T07:52:42.557Z,78.23
2018-10-16T07:55:12.774Z,77.61
2018-10-16T07:57:41.531Z,77.13
2018-10-16T08:00:13.069Z,77.56
2018-10-16T08:02:42.713Z,76.36
2018-10-16T08:05:12.112Z,76.01
2018-10-16T08:07:41.274Z,75.72
2018-10-16T08:10:11.418Z,75.69
2018-10-16T08:12:40.262Z,74.93
2018-10-16T08:15:09.498Z,73.90
2018-10-16T08:17:38.466Z,73.11
2018-10-16T08:20:07.254Z,71.48
2018-10-16T08:22:36.033Z,71.75
2018-10-16T08:25:05.214Z,72.50
2018-10-16T08:27:33.724Z,72.67
2018-10-16T08:30:04.231Z,69.77
2018-10-16T08:32:32.761Z,70.34
2018-10-16T08:35:02.455Z,69.81
2018-10-16T08:39:47.427Z,70.25
2018-10-16T08:43:30.746Z,69.65
2018-10-16T08:46:10.521Z,69.00
2018-10-16T08:48:50.280Z,68.46
2018-10-16T08:51:31.855Z,65.74
2018-10-16T08:54:00.427Z,65.12
2018-10-16T08:56:29.037Z,67.68
2018-10-16T08:58:57.855Z,66.60
2018-10-16T09:01:26.409Z,66.05
2018-10-16T09:03:54.953Z,65.07
2018-10-16T09:06:23.466Z,63.98
2018-10-16T09:08:52.000Z,62.70
2018-10-16T09:11:20.570Z,62.82
2018-10-16T09:13:49.202Z,61.79
2018-10-16T09:16:17.716Z,61.65
2018-10-16T09:18:47.974Z,63.34
2018-10-16T09:21:16.516Z,61.23
2018-10-16T09:23:45.157Z,60.84
2018-10-16T09:26:13.751Z,61.85
2018-10-16T09:28:42.364Z,59.59
2018-10-16T09:31:10.960Z,58.07
2018-10-16T09:33:39.540Z,58.71
2018-10-16T09:36:08.393Z,58.44
2018-10-16T09:38:37.216Z,59.55
2018-10-16T09:41:05.919Z,60.57
2018-10-16T09:43:34.881Z,59.54
2018-10-16T09:46:04.480Z,58.37
2018-10-16T09:48:33.019Z,59.18
2018-10-16T09:51:03.190Z,58.53
2018-10-16T09:53:31.728Z,56.42
2018-10-16T09:56:00.242Z,57.70
2018-10-16T09:58:29.108Z,57.74
2018-10-16T10:01:02.976Z,57.38
2018-10-16T10:03:31.692Z,57.07
2018-10-16T10:06:00.178Z,56.51
2018-10-16T10:08:28.696Z,58.97
2018-10-16T10:10:57.256Z,57.04
2018-10-16T10:13:25.957Z,57.77
2018-10-16T10:15:54.495Z,58.49
2018-10-16T10:18:23.025Z,55.37
2018-10-16T10:20:51.639Z,56.13
2018-10-16T10:23:20.169Z,56.99
2018-10-16T10:25:48.747Z,57.23
2018-10-16T10:28:17.357Z,59.21
2018-10-16T10:30:45.890Z,58.51
2018-10-16T10:33:14.467Z,58.39
2018-10-16T10:35:45.963Z,56.08
2018-10-16T10:38:14.502Z,56.77
2018-10-16T10:40:43.581Z,57.79
2018-10-16T10:43:12.119Z,58.07
2018-10-16T10:45:40.634Z,55.99
2018-10-16T10:48:09.566Z,56.01
2018-10-16T10:50:38.322Z,57.63
2018-10-16T10:53:06.602Z,55.75
2018-10-16T10:55:39.308Z,57.40
2018-10-16T10:58:07.992Z,57.87
2018-10-16T11:00:36.563Z,58.41
2018-10-16T11:03:05.594Z,58.12
2018-10-16T11:05:34.585Z,56.73
2018-10-16T11:08:05.853Z,57.06
2018-10-16T11:10:34.428Z,56.07
2018-10-16T11:13:05.741Z,56.24
2018-10-16T11:15:34.263Z,55.44
2018-10-16T11:18:04.569Z,55.49
2018-10-16T11:20:33.093Z,54.49
2018-10-16T11:23:02.762Z,52.76
2018-10-16T11:25:31.346Z,52.06
2018-10-16T11:27:59.854Z,51.98
2018-10-16T11:30:28.446Z,51.79
2018-10-16T11:32:56.990Z,51.99
2018-10-16T11:35:25.525Z,50.90
2018-10-16T11:37:54.018Z,51.68
2018-10-16T11:40:22.576Z,52.61
2018-10-16T11:42:51.125Z,51.86
2018-10-16T11:45:19.700Z,51.69
2018-10-16T11:47:48.185Z,52.11
2018-10-16T11:50:16.881Z,50.53
2018-10-16T11:52:45.447Z,50.66
2018-10-16T11:55:14.010Z,50.10
2018-10-16T11:57:42.627Z,49.72
2018-10-16T12:00:15.686Z,48.68
2018-10-16T12:02:44.455Z,45.75
2018-10-16T12:05:13.050Z,45.29
2018-10-16T12:07:42.063Z,44.61
2018-10-16T12:10:10.661Z,42.39
2018-10-16T12:12:39.225Z,38.66
2018-10-16T12:15:08.286Z,38.83
2018-10-16T12:17:41.834Z,37.60
2018-10-16T12:20:14.991Z,35.59
2018-10-16T12:22:43.504Z,37.27
2018-10-16T12:25:12.067Z,37.69
2018-10-16T12:27:40.631Z,37.42
2018-10-16T12:30:09.525Z,35.99
2018-10-16T12:32:38.420Z,37.28
2018-10-16T12:35:07.086Z,39.27
2018-10-16T12:37:35.730Z,36.09
2018-10-16T12:40:06.168Z,35.42
2018-10-16T12:42:34.725Z,34.44
2018-10-16T12:45:05.054Z,33.17
2018-10-16T12:47:33.705Z,31.05
2018-10-16T12:50:04.267Z,31.61
2018-10-16T12:52:32.850Z,31.56
2018-10-16T12:55:02.723Z,30.40
2018-10-16T12:57:31.361Z,31.48
2018-10-16T12:59:59.949Z,32.74
2018-10-16T13:02:28.499Z,30.62
2018-10-16T13:04:57.355Z,30.08
2018-10-16T13:07:41.197Z,30.00
2018-10-16T13:10:13.379Z,29.26
2018-10-16T13:12:42.523Z,30.92
2018-10-16T13:15:12.451Z,33.27
2018-10-16T13:17:41.776Z,35.29
2018-10-16T13:20:12.387Z,35.86
2018-10-16T13:22:41.406Z,33.53
2018-10-16T13:25:11.538Z,31.29
2018-10-16T13:27:40.078Z,32.20
2018-10-16T13:30:11.421Z,35.38
2018-10-16T13:32:40.077Z,31.94
2018-10-16T13:35:11.550Z,32.91
2018-10-16T13:37:39.989Z,30.14
2018-10-16T13:40:09.639Z,29.76
2018-10-16T13:42:38.187Z,30.22
2018-10-16T13:45:07.897Z,34.31
2018-10-16T13:47:36.418Z,31.66
2018-10-16T13:50:06.199Z,30.44
2018-10-16T13:52:34.722Z,30.02
2018-10-16T13:55:05.029Z,30.26
2018-10-16T13:57:33.568Z,33.17
2018-10-16T14:00:03.787Z,33.82
2018-10-16T14:02:32.346Z,31.50
2018-10-16T14:05:01.021Z,29.57
2018-10-16T14:07:29.490Z,31.95
2018-10-16T14:09:58.035Z,32.41
2018-10-16T14:12:26.583Z,31.58
2018-10-16T14:14:55.137Z,32.43
2018-10-16T14:17:23.697Z,34.48
2018-10-16T14:19:52.278Z,35.14
2018-10-16T14:22:20.833Z,35.38
2018-10-16T14:24:49.444Z,35.74
2018-10-16T14:27:18.008Z,35.78
2018-10-16T14:29:46.554Z,34.56
2018-10-16T14:32:15.241Z,33.88
2018-10-16T14:34:43.935Z,34.84
2018-10-16T14:37:12.458Z,34.03
2018-10-16T14:39:40.989Z,33.79
2018-10-16T14:42:09.770Z,33.86
2018-10-16T14:44:38.287Z,34.97
2018-10-16T14:47:06.848Z,34.23
2018-10-16T14:49:36.334Z,36.32
2018-10-16T14:52:05.565Z,36.54
2018-10-16T14:54:34.110Z,37.14
2018-10-16T14:57:04.091Z,37.70
2018-10-16T14:59:32.573Z,38.32
2018-10-16T15:02:03.612Z,38.90
2018-10-16T15:04:32.081Z,39.01
2018-10-16T15:07:00.597Z,37.79
2018-10-16T15:09:29.240Z,39.66
2018-10-16T15:11:57.830Z,40.08
2018-10-16T15:14:26.829Z,42.34
2018-10-16T15:16:55.347Z,41.40
2018-10-16T15:19:24.003Z,42.98
2018-10-16T15:21:52.547Z,42.13
2018-10-16T15:24:21.125Z,41.70
2018-10-16T15:26:49.775Z,41.55
2018-10-16T15:29:18.384Z,44.66
2018-10-16T15:31:46.919Z,45.96
2018-10-16T15:34:15.474Z,46.34
2018-10-16T15:36:44.145Z,45.63
2018-10-16T15:39:13.473Z,47.46
2018-10-16T15:41:41.985Z,47.47
2018-10-16T15:44:11.248Z,49.74
2018-10-16T15:46:40.096Z,49.24
2018-10-16T15:49:08.781Z,49.63
2018-10-16T15:51:37.324Z,50.11
2018-10-16T15:54:06.271Z,49.93
2018-10-16T15:56:34.805Z,50.49
2018-10-16T15:59:04.598Z,53.19
2018-10-16T16:01:33.098Z,52.84
2018-10-16T16:04:03.168Z,51.62
2018-10-16T16:06:31.651Z,52.52
2018-10-16T16:09:00.291Z,54.07
2018-10-16T16:11:28.864Z,53.82
2018-10-16T16:13:57.558Z,54.37
2018-10-16T16:16:26.435Z,54.63
2018-10-16T16:18:54.936Z,55.16
2018-10-16T16:21:23.890Z,56.42
2018-10-16T16:23:52.430Z,56.16
2018-10-16T16:26:20.985Z,57.44
2018-10-16T16:28:50.159Z,57.90
2018-10-16T16:31:18.856Z,58.90
2018-10-16T16:33:47.409Z,59.75
2018-10-16T16:36:15.952Z,60.08
2018-10-16T16:38:44.534Z,61.18
2018-10-16T16:41:13.102Z,60.46
2018-10-16T16:43:42.510Z,62.04
2018-10-16T16:46:11.087Z,62.01
2018-10-16T16:48:39.612Z,62.15
2018-10-16T16:51:08.163Z,63.25
2018-10-16T16:53:36.722Z,64.18
2018-10-16T16:56:06.055Z,63.88
2018-10-16T16:58:35.117Z,64.81
2018-10-16T17:01:05.994Z,65.66
2018-10-16T17:03:34.864Z,66.48
2018-10-16T17:06:04.639Z,66.30
2018-10-16T17:08:33.166Z,67.12
2018-10-16T17:11:04.727Z,66.96
2018-10-16T17:13:33.248Z,68.09
2018-10-16T17:16:02.725Z,68.15
2018-10-16T17:18:31.337Z,68.50
2018-10-16T17:20:59.797Z,69.37
2018-10-16T17:23:28.397Z,69.93
2018-10-16T17:25:57.251Z,70.33
2018-10-16T17:28:25.494Z,70.50
2018-10-16T17:30:54.088Z,70.77
2018-10-16T17:33:22.651Z,71.41
2018-10-16T17:35:51.165Z,71.84
2018-10-16T17:38:19.685Z,72.54
2018-10-16T17:40:48.288Z,72.53
2018-10-16T17:43:16.795Z,73.11
2018-10-16T17:45:45.579Z,73.68
2018-10-16T17:48:14.164Z,73.21
2018-10-16T17:50:43.169Z,74.53
2018-10-16T17:53:11.705Z,74.27
2018-10-16T17:55:40.186Z,74.72
2018-10-16T17:58:08.740Z,74.56
2018-10-16T18:00:39.423Z,75.43
2018-10-16T18:03:07.994Z,75.26
2018-10-16T18:05:36.553Z,75.48
2018-10-16T18:08:05.233Z,76.79
2018-10-16T18:10:33.818Z,77.21
2018-10-16T18:13:05.000Z,76.58
2018-10-16T18:15:35.216Z,76.80
2018-10-16T18:18:04.648Z,76.88
2018-10-16T18:20:33.231Z,77.50
2018-10-16T18:23:03.150Z,78.30
2018-10-16T18:25:31.724Z,79.24
2018-10-16T18:28:00.290Z,79.17
2018-10-16T18:30:28.826Z,79.01
2018-10-16T18:32:57.428Z,80.13
2018-10-16T18:35:26.047Z,80.40
2018-10-16T18:37:55.179Z,80.37
2018-10-16T18:40:23.886Z,80.08
2018-10-16T18:42:53.293Z,80.44
2018-10-16T18:45:21.855Z,80.69
2018-10-16T18:47:52.140Z,80.73
2018-10-16T18:50:20.654Z,80.69
2018-10-16T18:52:49.232Z,80.21
2018-10-16T18:55:17.808Z,80.38
2018-10-16T18:57:46.498Z,81.47
2018-10-16T19:00:18.171Z,80.84
2018-10-16T19:02:47.465Z,80.51
2018-10-16T19:05:16.138Z,80.53
2018-10-16T19:07:44.779Z,79.99
2018-10-16T19:10:13.470Z,80.06
2018-10-16T19:12:42.366Z,80.72
2018-10-16T19:15:12.597Z,80.44
2018-10-16T19:17:41.828Z,80.69
2018-10-16T19:20:11.887Z,80.88
2018-10-16T19:22:40.567Z,80.59
2018-10-16T19:25:10.133Z,81.21
2018-10-16T19:27:38.880Z,81.04
2018-10-16T19:30:08.686Z,81.19
2018-10-16T19:32:37.325Z,80.58
2018-10-16T19:35:06.207Z,81.35
2018-10-16T19:37:34.891Z,81.29
2018-10-16T19:40:04.912Z,81.08
2018-10-16T19:42:33.494Z,81.23
2018-10-16T19:45:03.953Z,81.77
2018-10-16T19:47:32.616Z,82.25
2018-10-16T19:50:02.724Z,82.00
2018-10-16T19:52:31.284Z,82.79
2018-10-16T19:54:59.874Z,82.81
2018-10-16T19:57:28.481Z,82.40
2018-10-16T19:59:57.083Z,83.41
2018-10-16T20:02:25.632Z,82.77
2018-10-16T20:04:54.230Z,83.30
2018-10-16T20:07:22.895Z,83.57
2018-10-16T20:09:51.425Z,83.50
2018-10-16T20:12:19.988Z,82.89
2018-10-16T20:14:48.553Z,83.47
2018-10-16T20:17:17.114Z,82.66
2018-10-16T20:19:45.698Z,82.51
2018-10-16T20:22:14.218Z,82.68
2018-10-16T20:24:42.835Z,82.72
2018-10-16T20:27:11.310Z,83.07
2018-10-16T20:29:39.834Z,83.98
2018-10-16T20:32:08.069Z,83.67
2018-10-16T20:34:36.664Z,83.36
2018-10-16T20:37:05.288Z,83.51
2018-10-16T20:39:33.796Z,83.24
2018-10-16T20:42:04.487Z,83.35
2018-10-16T20:44:33.042Z,83.28
2018-10-16T20:47:02.897Z,82.93
2018-10-16T20:49:31.456Z,83.51
2018-10-16T20:52:01.128Z,83.70
2018-10-16T20:54:29.635Z,83.75
2018-10-16T20:56:58.154Z,84.16
2018-10-16T20:59:26.790Z,84.20
2018-10-16T21:01:55.428Z,84.87
2018-10-16T21:04:23.960Z,84.67
2018-10-16T21:06:52.639Z,83.99
2018-10-16T21:09:21.152Z,84.21
2018-10-16T21:11:49.692Z,84.37
2018-10-16T21:14:18.196Z,84.87
2018-10-16T21:16:46.775Z,84.78
2018-10-16T21:19:15.364Z,85.58
2018-10-16T21:21:43.836Z,85.58
2018-10-16T21:24:12.416Z,85.30
2018-10-16T21:26:41.036Z,85.75
2018-10-16T21:29:09.621Z,85.19
2018-10-16T21:31:38.107Z,86.04
2018-10-16T21:34:06.704Z,85.73
2018-10-16T21:36:35.203Z,86.16
2018-10-16T21:39:06.637Z,86.72
2018-10-16T21:41:35.499Z,87.04
2018-10-16T21:44:09.264Z,86.29
2018-10-16T21:46:37.820Z,86.31
2018-10-16T21:49:06.827Z,87.22
2018-10-16T21:51:35.299Z,87.03
2018-10-16T21:54:06.077Z,87.11
2018-10-16T21:56:34.606Z,87.39
2018-10-16T21:59:04.945Z,88.00
2018-10-16T22:01:38.542Z,88.05
2018-10-16T22:04:07.123Z,87.67
2018-10-16T22:06:35.630Z,87.88
2018-10-16T22:09:09.949Z,88.22
2018-10-16T22:11:38.478Z,87.76
2018-10-16T22:14:07.517Z,88.17
2018-10-16T22:16:36.087Z,88.06
2018-10-16T22:19:06.044Z,88.07
2018-10-16T22:21:34.601Z,88.42
2018-10-16T22:24:04.485Z,88.48
2018-10-16T22:26:33.289Z,88.61
2018-10-16T22:29:03.286Z,88.67
2018-10-16T22:31:31.769Z,88.76
2018-10-16T22:34:00.294Z,88.06
2018-10-16T22:36:28.848Z,88.46
2018-10-16T22:38:57.353Z,88.96
2018-10-16T22:41:26.132Z,89.01
2018-10-16T22:43:54.808Z,88.26
2018-10-16T22:46:23.328Z,88.50
2018-10-16T22:48:51.941Z,88.76
2018-10-16T22:51:20.477Z,88.30
2018-10-16T22:53:48.947Z,88.85
2018-10-16T22:56:17.491Z,88.69
2018-10-16T22:58:46.157Z,89.02
2018-10-16T23:01:14.712Z,88.45
2018-10-16T23:03:43.278Z,88.60
2018-10-16T23:06:11.880Z,88.01
2018-10-16T23:08:40.466Z,88.12
2018-10-16T23:11:09.456Z,87.81
2018-10-16T23:13:37.973Z,87.81
2018-10-16T23:16:06.491Z,87.98
2018-10-16T23:18:35.272Z,88.14
2018-10-16T23:21:05.429Z,87.70
2018-10-16T23:23:33.918Z,87.90
2018-10-16T23:26:04.661Z,89.06
2018-10-16T23:28:33.198Z,88.86
2018-10-16T23:31:02.807Z,88.07
2018-10-16T23:33:31.378Z,88.59
2018-10-16T23:35:59.937Z,88.06
2018-10-16T23:38:28.474Z,88.26
2018-10-16T23:40:56.975Z,87.98
2018-10-16T23:43:25.503Z,87.52
2018-10-16T23:45:54.063Z,88.21
2018-10-16T23:48:22.587Z,87.99
2018-10-16T23:50:51.189Z,88.48
2018-10-16T23:53:19.716Z,88.02
2018-10-16T23:55:48.232Z,87.66
2018-10-16T23:58:16.836Z,87.76
